sensor_id;sensor_type;location;lat;lon;timestamp;pressure;altitude;pressure_sealevel;temperature;humidity
9281;BME280;4679;47.966;7.958;2024-01-06T08:12:34;96277.66;;;4.86;85.29
9281;BME280;4679;47.966;7.958;2024-01-06T08:14:36;96280.06;;;4.88;85.20
9281;BME280;4679;47.966;7.958;2024-01-06T08:16:37;96279.81;;;4.89;85.35
9281;BME280;4679;47.966;7.958;2024-01-06T08:18:39;96282.56;;;4.94;85.04
9281;BME280;4679;47.966;7.958;2024-01-06T08:20:41;96283.94;;;4.97;85.82
9281;BME280;4679;47.966;7.958;2024-01-06T08:22:43;96280.06;;;5.00;85.46
9281;BME280;4679;47.966;7.958;2024-01-06T08:24:44;96277.78;;;5.03;84.82
9281;BME280;4679;47.966;7.958;2024-01-06T08:26:45;96288.06;;;5.05;84.74
9281;BME280;4679;47.966;7.958;2024-01-06T08:28:49;96293.09;;;5.06;85.47
9281;BME280;4679;47.966;7.958;2024-01-06T08:30:50;96286.81;;;5.07;85.04
9281;BME280;4679;47.966;7.958;2024-01-06T08:32:52;96298.69;;;5.10;84.75
9281;BME280;4679;47.966;7.958;2024-01-06T08:34:53;96299.72;;;5.09;85.62
9281;BME280;4679;47.966;7.958;2024-01-06T08:36:55;96297.88;;;5.09;84.80
9281;BME280;4679;47.966;7.958;2024-01-06T08:38:57;96309.44;;;5.08;85.42
9281;BME280;4679;47.966;7.958;2024-01-06T08:40:58;96305.78;;;5.09;85.37
9281;BME280;4679;47.966;7.958;2024-01-06T08:42:59;96303.94;;;5.10;84.87
9281;BME280;4679;47.966;7.958;2024-01-06T08:45:02;96305.56;;;5.11;85.18
9281;BME280;4679;47.966;7.958;2024-01-06T08:47:04;96313.66;;;5.09;84.86
9281;BME280;4679;47.966;7.958;2024-01-06T08:49:06;96313.22;;;5.12;85.35
9281;BME280;4679;47.966;7.958;2024-01-06T08:51:07;96314.59;;;5.15;84.85
9281;BME280;4679;47.966;7.958;2024-01-06T08:53:09;96316.78;;;5.18;84.42
9281;BME280;4679;47.966;7.958;2024-01-06T08:55:10;96314.69;;;5.20;84.46
9281;BME280;4679;47.966;7.958;2024-01-06T08:57:12;96323.38;;;5.20;84.89
9281;BME280;4679;47.966;7.958;2024-01-06T08:59:13;96325.56;;;5.23;85.04
9281;BME280;4679;47.966;7.958;2024-01-06T09:01:16;96320.28;;;5.23;84.99
9281;BME280;4679;47.966;7.958;2024-01-06T09:03:18;96328.41;;;5.22;84.72
9281;BME280;4679;47.966;7.958;2024-01-06T09:05:25;96330.81;;;5.23;85.04
9281;BME280;4679;47.966;7.958;2024-01-06T09:07:26;96332.19;;;5.26;84.99
9281;BME280;4679;47.966;7.958;2024-01-06T09:09:28;96331.75;;;5.29;84.74
9281;BME280;4679;47.966;7.958;2024-01-06T09:11:30;96329.69;;;5.31;83.88
9281;BME280;4679;47.966;7.958;2024-01-06T09:13:31;96324.50;;;5.36;84.28
9281;BME280;4679;47.966;7.958;2024-01-06T09:15:32;96323.84;;;5.41;84.49
9281;BME280;4679;47.966;7.958;2024-01-06T09:17:35;96329.44;;;5.44;83.42
9281;BME280;4679;47.966;7.958;2024-01-06T09:19:37;96328.75;;;5.49;83.55
9281;BME280;4679;47.966;7.958;2024-01-06T09:21:38;96321.66;;;5.49;84.05
9281;BME280;4679;47.966;7.958;2024-01-06T09:23:40;96322.22;;;5.51;83.87
9281;BME280;4679;47.966;7.958;2024-01-06T09:25:41;96325.09;;;5.50;83.64
9281;BME280;4679;47.966;7.958;2024-01-06T09:27:43;96321.19;;;5.52;83.56
9281;BME280;4679;47.966;7.958;2024-01-06T09:29:45;96325.53;;;5.58;83.65
9281;BME280;4679;47.966;7.958;2024-01-06T09:31:46;96323.47;;;5.60;82.80
9281;BME280;4679;47.966;7.958;2024-01-06T09:33:49;96324.34;;;5.66;83.77
9281;BME280;4679;47.966;7.958;2024-01-06T09:35:51;96322.63;;;5.72;83.41
9281;BME280;4679;47.966;7.958;2024-01-06T09:37:51;96322.97;;;5.75;82.47
9281;BME280;4679;47.966;7.958;2024-01-06T09:39:53;96321.72;;;5.78;82.77
9281;BME280;4679;47.966;7.958;2024-01-06T09:41:54;96319.09;;;5.78;82.91
9281;BME280;4679;47.966;7.958;2024-01-06T09:43:55;96318.28;;;5.77;82.26
9281;BME280;4679;47.966;7.958;2024-01-06T09:46:02;96325.28;;;5.72;82.19
9281;BME280;4679;47.966;7.958;2024-01-06T09:48:10;96329.88;;;5.64;83.07
9281;BME280;4679;47.966;7.958;2024-01-06T09:50:14;96325.66;;;5.63;82.55
9281;BME280;4679;47.966;7.958;2024-01-06T09:52:20;96331.56;;;5.71;82.98
9281;BME280;4679;47.966;7.958;2024-01-06T09:54:23;96339.00;;;5.74;82.10
9281;BME280;4679;47.966;7.958;2024-01-06T09:56:26;96334.53;;;5.74;82.29
9281;BME280;4679;47.966;7.958;2024-01-06T09:58:28;96338.56;;;5.77;82.52
9281;BME280;4679;47.966;7.958;2024-01-06T10:00:33;96335.69;;;5.78;82.27
9281;BME280;4679;47.966;7.958;2024-01-06T10:02:34;96336.25;;;5.80;81.79
9281;BME280;4679;47.966;7.958;2024-01-06T10:04:35;96340.72;;;5.80;81.33
9281;BME280;4679;47.966;7.958;2024-01-06T10:06:38;96336.94;;;5.76;81.41
9281;BME280;4679;47.966;7.958;2024-01-06T10:08:42;96335.69;;;5.78;81.49
9281;BME280;4679;47.966;7.958;2024-01-06T10:10:44;96327.56;;;5.80;80.84
9281;BME280;4679;47.966;7.958;2024-01-06T10:12:45;96341.25;;;5.82;81.53
9281;BME280;4679;47.966;7.958;2024-01-06T10:14:46;96338.75;;;5.87;80.78
9281;BME280;4679;47.966;7.958;2024-01-06T10:16:49;96339.91;;;5.91;80.69
9281;BME280;4679;47.966;7.958;2024-01-06T10:18:52;96340.50;;;5.93;81.27
9281;BME280;4679;47.966;7.958;2024-01-06T10:20:54;96336.59;;;5.95;80.45
9281;BME280;4679;47.966;7.958;2024-01-06T10:23:04;96338.31;;;5.90;80.92
9281;BME280;4679;47.966;7.958;2024-01-06T10:25:07;96332.81;;;5.80;81.12
9281;BME280;4679;47.966;7.958;2024-01-06T10:27:09;96333.75;;;5.74;80.23
9281;BME280;4679;47.966;7.958;2024-01-06T10:29:10;96335.91;;;5.77;80.42
9281;BME280;4679;47.966;7.958;2024-01-06T10:31:12;96333.13;;;5.83;80.11
9281;BME280;4679;47.966;7.958;2024-01-06T10:33:14;96341.19;;;5.88;80.40
9281;BME280;4679;47.966;7.958;2024-01-06T10:35:16;96337.94;;;5.86;79.72
9281;BME280;4679;47.966;7.958;2024-01-06T10:37:18;96342.31;;;5.92;79.50
9281;BME280;4679;47.966;7.958;2024-01-06T10:39:21;96336.91;;;5.99;80.25
9281;BME280;4679;47.966;7.958;2024-01-06T10:41:24;96333.69;;;5.97;79.71
9281;BME280;4679;47.966;7.958;2024-01-06T10:43:26;96327.63;;;5.96;79.01
9281;BME280;4679;47.966;7.958;2024-01-06T10:45:29;96325.16;;;5.90;79.45
9281;BME280;4679;47.966;7.958;2024-01-06T10:47:32;96322.94;;;5.87;79.49
9281;BME280;4679;47.966;7.958;2024-01-06T10:49:34;96332.25;;;5.89;79.93
9281;BME280;4679;47.966;7.958;2024-01-06T10:51:37;96330.41;;;5.90;78.79
9281;BME280;4679;47.966;7.958;2024-01-06T10:53:40;96337.50;;;5.89;79.81
9281;BME280;4679;47.966;7.958;2024-01-06T10:55:44;96330.66;;;5.88;79.59
9281;BME280;4679;47.966;7.958;2024-01-06T10:57:46;96328.44;;;5.85;79.83
9281;BME280;4679;47.966;7.958;2024-01-06T10:59:50;96328.22;;;5.87;78.68
9281;BME280;4679;47.966;7.958;2024-01-06T11:01:52;96331.88;;;5.86;79.12
9281;BME280;4679;47.966;7.958;2024-01-06T11:03:56;96337.16;;;5.86;78.29
9281;BME280;4679;47.966;7.958;2024-01-06T11:05:59;96332.59;;;5.93;78.75
9281;BME280;4679;47.966;7.958;2024-01-06T11:08:01;96325.50;;;5.93;78.81
9281;BME280;4679;47.966;7.958;2024-01-06T11:10:06;96320.00;;;5.95;77.98
9281;BME280;4679;47.966;7.958;2024-01-06T11:12:10;96330.28;;;5.96;78.92
9281;BME280;4679;47.966;7.958;2024-01-06T11:14:19;96327.78;;;5.90;78.51
9281;BME280;4679;47.966;7.958;2024-01-06T11:16:36;96326.75;;;5.91;77.93
9281;BME280;4679;47.966;7.958;2024-01-06T11:18:39;96331.00;;;5.92;78.27
9281;BME280;4679;47.966;7.958;2024-01-06T11:21:14;96329.47;;;5.84;77.89
9281;BME280;4679;47.966;7.958;2024-01-06T11:23:18;96325.81;;;5.85;78.79
9281;BME280;4679;47.966;7.958;2024-01-06T11:25:21;96327.78;;;5.90;77.81
9281;BME280;4679;47.966;7.958;2024-01-06T11:27:25;96325.16;;;5.90;77.68
9281;BME280;4679;47.966;7.958;2024-01-06T11:29:30;96325.16;;;5.90;78.05
9281;BME280;4679;47.966;7.958;2024-01-06T11:31:31;96321.34;;;5.97;78.42
9281;BME280;4679;47.966;7.958;2024-01-06T11:33:33;96322.81;;;6.05;78.20
9281;BME280;4679;47.966;7.958;2024-01-06T11:35:37;96320.81;;;6.12;78.02
9281;BME280;4679;47.966;7.958;2024-01-06T11:37:51;96315.91;;;6.16;78.03
9281;BME280;4679;47.966;7.958;2024-01-06T11:39:52;96319.09;;;6.18;77.78
9281;BME280;4679;47.966;7.958;2024-01-06T11:41:54;96314.97;;;6.22;77.10
9281;BME280;4679;47.966;7.958;2024-01-06T11:43:58;96318.41;;;6.22;76.84
9281;BME280;4679;47.966;7.958;2024-01-06T11:46:01;96316.47;;;6.18;77.42
9281;BME280;4679;47.966;7.958;2024-01-06T11:48:04;96310.28;;;6.12;77.45
9281;BME280;4679;47.966;7.958;2024-01-06T11:50:07;96309.50;;;6.12;76.65
9281;BME280;4679;47.966;7.958;2024-01-06T11:52:08;96320.28;;;6.10;76.85
9281;BME280;4679;47.966;7.958;2024-01-06T11:54:10;96314.53;;;6.13;76.92
9281;BME280;4679;47.966;7.958;2024-01-06T11:56:12;96319.34;;;6.16;77.27
9281;BME280;4679;47.966;7.958;2024-01-06T11:58:16;96313.84;;;6.18;76.37
9281;BME280;4679;47.966;7.958;2024-01-06T12:02:10;96318.75;;;6.14;76.07
9281;BME280;4679;47.966;7.958;2024-01-06T12:04:14;96311.31;;;6.11;76.05
9281;BME280;4679;47.966;7.958;2024-01-06T12:06:20;96310.78;;;6.09;76.60
9281;BME280;4679;47.966;7.958;2024-01-06T12:08:21;96310.69;;;6.04;76.13
9281;BME280;4679;47.966;7.958;2024-01-06T12:10:24;96313.66;;;5.96;76.99
9281;BME280;4679;47.966;7.958;2024-01-06T12:12:26;96310.59;;;5.87;77.14
9281;BME280;4679;47.966;7.958;2024-01-06T12:14:27;96305.13;;;5.89;76.92
9281;BME280;4679;47.966;7.958;2024-01-06T12:16:29;96300.66;;;5.89;76.63
9281;BME280;4679;47.966;7.958;2024-01-06T12:18:34;96297.78;;;5.91;76.17
9281;BME280;4679;47.966;7.958;2024-01-06T12:20:36;96296.50;;;5.82;76.30
9281;BME280;4679;47.966;7.958;2024-01-06T12:22:37;96296.06;;;5.85;76.54
9281;BME280;4679;47.966;7.958;2024-01-06T12:24:39;96306.72;;;5.90;76.31
9281;BME280;4679;47.966;7.958;2024-01-06T12:26:41;96303.88;;;5.91;75.73
9281;BME280;4679;47.966;7.958;2024-01-06T12:28:44;96295.03;;;5.86;76.76
9281;BME280;4679;47.966;7.958;2024-01-06T12:30:46;96298.84;;;5.78;76.71
9281;BME280;4679;47.966;7.958;2024-01-06T12:32:48;96300.31;;;5.74;76.13
9281;BME280;4679;47.966;7.958;2024-01-06T12:34:53;96300.56;;;5.73;76.79
9281;BME280;4679;47.966;7.958;2024-01-06T12:36:56;96297.00;;;5.67;76.78
9281;BME280;4679;47.966;7.958;2024-01-06T12:38:58;96296.22;;;5.66;76.40
9281;BME280;4679;47.966;7.958;2024-01-06T12:41:00;96302.50;;;5.65;77.00
9281;BME280;4679;47.966;7.958;2024-01-06T12:43:01;96294.06;;;5.63;76.75
9281;BME280;4679;47.966;7.958;2024-01-06T12:45:04;96299.41;;;5.69;75.97
9281;BME280;4679;47.966;7.958;2024-01-06T12:47:05;96299.06;;;5.77;76.27
9281;BME280;4679;47.966;7.958;2024-01-06T12:49:07;96295.75;;;5.70;75.75
9281;BME280;4679;47.966;7.958;2024-01-06T12:51:09;96294.16;;;5.69;76.65
9281;BME280;4679;47.966;7.958;2024-01-06T12:53:10;96290.88;;;5.61;75.96
9281;BME280;4679;47.966;7.958;2024-01-06T12:55:13;96284.47;;;5.57;76.03
9281;BME280;4679;47.966;7.958;2024-01-06T12:57:15;96290.75;;;5.56;76.67
9281;BME280;4679;47.966;7.958;2024-01-06T12:59:17;96292.94;;;5.59;76.62
9281;BME280;4679;47.966;7.958;2024-01-06T13:01:19;96297.34;;;5.71;75.71
9281;BME280;4679;47.966;7.958;2024-01-06T13:03:20;96296.22;;;5.78;76.52
9281;BME280;4679;47.966;7.958;2024-01-06T13:05:21;96297.47;;;5.76;76.05
9281;BME280;4679;47.966;7.958;2024-01-06T13:07:24;96296.44;;;5.77;76.52
9281;BME280;4679;47.966;7.958;2024-01-06T13:09:26;96294.03;;;5.75;75.74
9281;BME280;4679;47.966;7.958;2024-01-06T13:11:27;96301.59;;;5.72;76.55
9281;BME280;4679;47.966;7.958;2024-01-06T13:13:29;96301.00;;;5.70;76.45
9281;BME280;4679;47.966;7.958;2024-01-06T13:15:31;96299.88;;;5.65;75.99
9281;BME280;4679;47.966;7.958;2024-01-06T13:17:33;96293.84;;;5.65;75.71
9281;BME280;4679;47.966;7.958;2024-01-06T13:19:34;96296.56;;;5.70;76.21
9281;BME280;4679;47.966;7.958;2024-01-06T13:21:36;96296.91;;;5.74;76.19
9281;BME280;4679;47.966;7.958;2024-01-06T13:23:40;96303.06;;;5.79;76.07
9281;BME280;4679;47.966;7.958;2024-01-06T13:25:42;96304.09;;;5.78;76.39
9281;BME280;4679;47.966;7.958;2024-01-06T13:27:44;96300.22;;;5.69;75.51
9281;BME280;4679;47.966;7.958;2024-01-06T13:29:45;96305.47;;;5.69;76.40
9281;BME280;4679;47.966;7.958;2024-01-06T13:31:47;96310.41;;;5.77;76.32
9281;BME280;4679;47.966;7.958;2024-01-06T13:33:48;96305.44;;;5.81;76.12
9281;BME280;4679;47.966;7.958;2024-01-06T13:35:49;96307.63;;;5.84;75.61
9281;BME280;4679;47.966;7.958;2024-01-06T13:37:51;96309.59;;;5.88;76.22
9281;BME280;4679;47.966;7.958;2024-01-06T13:39:53;96310.97;;;5.91;75.34
9281;BME280;4679;47.966;7.958;2024-01-06T13:41:54;96308.31;;;5.91;75.29
9281;BME280;4679;47.966;7.958;2024-01-06T13:43:56;96306.56;;;5.96;75.70
9281;BME280;4679;47.966;7.958;2024-01-06T13:45:57;96301.06;;;5.98;75.25
9281;BME280;4679;47.966;7.958;2024-01-06T13:47:59;96303.88;;;5.91;75.24
9281;BME280;4679;47.966;7.958;2024-01-06T13:49:59;96317.03;;;5.91;74.97
9281;BME280;4679;47.966;7.958;2024-01-06T13:52:01;96309.69;;;5.93;75.11
9281;BME280;4679;47.966;7.958;2024-01-06T13:54:03;96313.94;;;5.94;76.36
9281;BME280;4679;47.966;7.958;2024-01-06T13:56:06;96312.66;;;5.85;76.26
9281;BME280;4679;47.966;7.958;2024-01-06T13:58:08;96312.41;;;5.87;76.30
9281;BME280;4679;47.966;7.958;2024-01-06T14:00:10;96310.38;;;5.89;76.23
9281;BME280;4679;47.966;7.958;2024-01-06T14:02:15;96313.22;;;5.87;75.89
9281;BME280;4679;47.966;7.958;2024-01-06T14:04:16;96319.28;;;5.88;75.59
9281;BME280;4679;47.966;7.958;2024-01-06T14:06:18;96316.00;;;5.92;75.95
9281;BME280;4679;47.966;7.958;2024-01-06T14:08:20;96310.28;;;5.95;75.60
9281;BME280;4679;47.966;7.958;2024-01-06T14:10:22;96316.31;;;5.96;75.35
9281;BME280;4679;47.966;7.958;2024-01-06T14:12:25;96315.75;;;5.82;76.36
9281;BME280;4679;47.966;7.958;2024-01-06T14:14:26;96315.75;;;5.82;76.29
9281;BME280;4679;47.966;7.958;2024-01-06T14:16:28;96323.88;;;5.81;75.41
9281;BME280;4679;47.966;7.958;2024-01-06T14:18:29;96319.56;;;5.75;75.55
9281;BME280;4679;47.966;7.958;2024-01-06T14:20:31;96319.31;;;5.76;75.63
9281;BME280;4679;47.966;7.958;2024-01-06T14:22:38;96319.09;;;5.78;76.44
9281;BME280;4679;47.966;7.958;2024-01-06T14:24:40;96318.97;;;5.73;75.95
9281;BME280;4679;47.966;7.958;2024-01-06T14:26:41;96324.94;;;5.68;75.76
9281;BME280;4679;47.966;7.958;2024-01-06T14:28:44;96334.19;;;5.71;76.31
9281;BME280;4679;47.966;7.958;2024-01-06T14:30:46;96326.66;;;5.74;76.57
9281;BME280;4679;47.966;7.958;2024-01-06T14:32:47;96325.38;;;5.77;75.38
9281;BME280;4679;47.966;7.958;2024-01-06T14:34:51;96328.03;;;5.77;76.14
9281;BME280;4679;47.966;7.958;2024-01-06T14:36:52;96335.47;;;5.80;75.65
9281;BME280;4679;47.966;7.958;2024-01-06T14:38:54;96331.00;;;5.80;76.42
9281;BME280;4679;47.966;7.958;2024-01-06T14:40:55;96330.72;;;5.82;75.81
9281;BME280;4679;47.966;7.958;2024-01-06T14:42:57;96327.56;;;5.80;75.51
9281;BME280;4679;47.966;7.958;2024-01-06T14:45:04;96333.28;;;5.77;76.54
9281;BME280;4679;47.966;7.958;2024-01-06T14:47:06;96331.69;;;5.76;76.41
9281;BME280;4679;47.966;7.958;2024-01-06T14:49:08;96338.56;;;5.77;76.28
9281;BME280;4679;47.966;7.958;2024-01-06T14:51:10;96336.16;;;5.75;75.88
9281;BME280;4679;47.966;7.958;2024-01-06T14:53:11;96347.69;;;5.74;75.91
9281;BME280;4679;47.966;7.958;2024-01-06T14:55:13;96348.38;;;5.70;76.29
9281;BME280;4679;47.966;7.958;2024-01-06T14:57:15;96352.41;;;5.60;76.37
9281;BME280;4679;47.966;7.958;2024-01-06T14:59:16;96349.56;;;5.62;76.98
9281;BME280;4679;47.966;7.958;2024-01-06T15:01:19;96352.41;;;5.60;77.13
9281;BME280;4679;47.966;7.958;2024-01-06T15:03:21;96348.75;;;5.61;76.94
9281;BME280;4679;47.966;7.958;2024-01-06T15:05:23;96349.78;;;5.60;76.00
9281;BME280;4679;47.966;7.958;2024-01-06T15:07:29;96361.69;;;5.63;76.56
9281;BME280;4679;47.966;7.958;2024-01-06T15:09:31;96354.03;;;5.61;76.10
9281;BME280;4679;47.966;7.958;2024-01-06T15:11:33;96362.59;;;5.57;77.12
9281;BME280;4679;47.966;7.958;2024-01-06T15:13:33;96366.03;;;5.57;76.97
9281;BME280;4679;47.966;7.958;2024-01-06T15:15:36;96356.06;;;5.59;77.35
9281;BME280;4679;47.966;7.958;2024-01-06T15:17:39;96372.66;;;5.60;76.92
9281;BME280;4679;47.966;7.958;2024-01-06T15:19:41;96357.69;;;5.60;76.04
9281;BME280;4679;47.966;7.958;2024-01-06T15:21:42;96361.91;;;5.61;76.37
9281;BME280;4679;47.966;7.958;2024-01-06T15:23:48;96357.44;;;5.62;76.27
9281;BME280;4679;47.966;7.958;2024-01-06T15:25:49;96369.00;;;5.61;77.21
9281;BME280;4679;47.966;7.958;2024-01-06T15:27:51;96363.97;;;5.59;76.27
9281;BME280;4679;47.966;7.958;2024-01-06T15:29:52;96364.19;;;5.58;77.20
9281;BME280;4679;47.966;7.958;2024-01-06T15:31:54;96367.84;;;5.57;77.04
9281;BME280;4679;47.966;7.958;2024-01-06T15:33:58;96374.59;;;5.53;77.21
9281;BME280;4679;47.966;7.958;2024-01-06T15:36:00;96377.94;;;5.48;76.37
9281;BME280;4679;47.966;7.958;2024-01-06T15:38:01;96380.31;;;5.38;77.71
9281;BME280;4679;47.966;7.958;2024-01-06T15:40:04;96374.41;;;5.31;77.67
9281;BME280;4679;47.966;7.958;2024-01-06T15:42:06;96370.03;;;5.25;77.37
9281;BME280;4679;47.966;7.958;2024-01-06T15:44:09;96378.06;;;5.18;77.69
9281;BME280;4679;47.966;7.958;2024-01-06T15:46:11;96382.72;;;5.16;77.13
9281;BME280;4679;47.966;7.958;2024-01-06T15:48:13;96380.44;;;5.20;77.54
9281;BME280;4679;47.966;7.958;2024-01-06T15:50:15;96383.06;;;5.20;78.20
9281;BME280;4679;47.966;7.958;2024-01-06T15:52:16;96388.88;;;5.22;77.92
9281;BME280;4679;47.966;7.958;2024-01-06T15:54:21;96381.72;;;5.17;78.34
9281;BME280;4679;47.966;7.958;2024-01-06T15:56:23;96386.84;;;5.12;77.89
9281;BME280;4679;47.966;7.958;2024-01-06T15:58:24;96392.31;;;5.11;77.91
9281;BME280;4679;47.966;7.958;2024-01-06T16:00:26;96390.50;;;5.11;77.56
9281;BME280;4679;47.966;7.958;2024-01-06T16:02:26;96391.75;;;5.09;77.96
9281;BME280;4679;47.966;7.958;2024-01-06T16:04:28;96388.88;;;5.10;78.07
9281;BME280;4679;47.966;7.958;2024-01-06T16:06:31;96390.72;;;5.10;78.09
9281;BME280;4679;47.966;7.958;2024-01-06T16:08:32;96391.97;;;5.07;78.12
9281;BME280;4679;47.966;7.958;2024-01-06T16:10:33;96401.44;;;5.08;78.54
9281;BME280;4679;47.966;7.958;2024-01-06T16:12:38;96394.94;;;5.11;78.74
9281;BME280;4679;47.966;7.958;2024-01-06T16:14:40;96400.56;;;5.14;78.11
9281;BME280;4679;47.966;7.958;2024-01-06T16:16:41;96394.72;;;5.12;78.00
9281;BME280;4679;47.966;7.958;2024-01-06T16:18:43;96403.63;;;5.11;78.10
9281;BME280;4679;47.966;7.958;2024-01-06T16:20:45;96392.66;;;5.14;78.40
9281;BME280;4679;47.966;7.958;2024-01-06T16:22:48;96385.69;;;5.20;78.43
9281;BME280;4679;47.966;7.958;2024-01-06T16:24:50;96393.56;;;5.20;77.99
9281;BME280;4679;47.966;7.958;2024-01-06T16:26:52;96397.00;;;5.20;78.43
9281;BME280;4679;47.966;7.958;2024-01-06T16:28:54;96397.00;;;5.20;78.57
9281;BME280;4679;47.966;7.958;2024-01-06T16:30:55;96403.88;;;5.21;78.14
9281;BME280;4679;47.966;7.958;2024-01-06T16:32:57;96401.72;;;5.18;78.62
9281;BME280;4679;47.966;7.958;2024-01-06T16:35:00;96403.19;;;5.14;78.62
9281;BME280;4679;47.966;7.958;2024-01-06T16:37:02;96403.63;;;5.11;78.29
9281;BME280;4679;47.966;7.958;2024-01-06T16:39:04;96410.16;;;5.09;78.76
9281;BME280;4679;47.966;7.958;2024-01-06T16:41:06;96406.94;;;5.07;79.17
9281;BME280;4679;47.966;7.958;2024-01-06T16:43:07;96406.94;;;5.07;78.56
9281;BME280;4679;47.966;7.958;2024-01-06T16:45:09;96410.81;;;5.04;78.48
9281;BME280;4679;47.966;7.958;2024-01-06T16:47:10;96412.88;;;5.02;79.21
9281;BME280;4679;47.966;7.958;2024-01-06T16:49:12;96414.72;;;5.02;78.68
9281;BME280;4679;47.966;7.958;2024-01-06T16:51:13;96410.03;;;5.04;79.13
9281;BME280;4679;47.966;7.958;2024-01-06T16:53:15;96410.81;;;5.04;79.27
9281;BME280;4679;47.966;7.958;2024-01-06T16:55:18;96406.34;;;5.05;78.66
9281;BME280;4679;47.966;7.958;2024-01-06T16:57:19;96412.66;;;5.04;78.57
9281;BME280;4679;47.966;7.958;2024-01-06T16:59:21;96421.56;;;5.03;79.17
9281;BME280;4679;47.966;7.958;2024-01-06T17:01:23;96419.16;;;5.01;78.88
9281;BME280;4679;47.966;7.958;2024-01-06T17:03:24;96421.31;;;4.92;79.92
9281;BME280;4679;47.966;7.958;2024-01-06T17:05:26;96423.81;;;4.87;78.97
9281;BME280;4679;47.966;7.958;2024-01-06T17:07:27;96422.31;;;4.80;79.20
9281;BME280;4679;47.966;7.958;2024-01-06T17:09:29;96424.56;;;4.76;79.61
9281;BME280;4679;47.966;7.958;2024-01-06T17:11:32;96424.00;;;4.74;79.51
9281;BME280;4679;47.966;7.958;2024-01-06T17:13:33;96430.63;;;4.77;79.93
9281;BME280;4679;47.966;7.958;2024-01-06T17:15:35;96429.25;;;4.74;79.99
9281;BME280;4679;47.966;7.958;2024-01-06T17:17:37;96423.88;;;4.69;80.02
9281;BME280;4679;47.966;7.958;2024-01-06T17:19:39;96430.38;;;4.67;79.94
9281;BME280;4679;47.966;7.958;2024-01-06T17:21:40;96436.44;;;4.67;80.35
9281;BME280;4679;47.966;7.958;2024-01-06T17:23:41;96438.63;;;4.70;80.05
9281;BME280;4679;47.966;7.958;2024-01-06T17:25:43;96434.81;;;4.66;80.11
9281;BME280;4679;47.966;7.958;2024-01-06T17:27:46;96430.00;;;4.63;80.35
9281;BME280;4679;47.966;7.958;2024-01-06T17:29:47;96430.81;;;4.64;80.55
9281;BME280;4679;47.966;7.958;2024-01-06T17:31:51;96434.25;;;4.64;80.48
9281;BME280;4679;47.966;7.958;2024-01-06T17:33:52;96434.09;;;4.59;80.71
9281;BME280;4679;47.966;7.958;2024-01-06T17:35:54;96432.75;;;4.56;80.32
9281;BME280;4679;47.966;7.958;2024-01-06T17:37:56;96437.53;;;4.59;80.56
9281;BME280;4679;47.966;7.958;2024-01-06T17:39:58;96440.84;;;4.55;80.81
9281;BME280;4679;47.966;7.958;2024-01-06T17:41:58;96443.31;;;4.50;80.62
9281;BME280;4679;47.966;7.958;2024-01-06T17:44:02;96451.19;;;4.50;80.76
9281;BME280;4679;47.966;7.958;2024-01-06T17:46:03;96444.94;;;4.51;80.84
9281;BME280;4679;47.966;7.958;2024-01-06T17:48:06;96444.72;;;4.52;80.50
9281;BME280;4679;47.966;7.958;2024-01-06T17:50:08;96449.31;;;4.57;80.86
9281;BME280;4679;47.966;7.958;2024-01-06T17:52:10;96451.03;;;4.63;80.79
9281;BME280;4679;47.966;7.958;2024-01-06T17:54:12;96452.41;;;4.66;80.82
9281;BME280;4679;47.966;7.958;2024-01-06T17:56:13;96450.59;;;4.66;80.96
9281;BME280;4679;47.966;7.958;2024-01-06T17:58:14;96452.78;;;4.69;80.83
9281;BME280;4679;47.966;7.958;2024-01-06T18:00:17;96457.34;;;4.74;80.74
9281;BME280;4679;47.966;7.958;2024-01-06T18:02:19;96463.41;;;4.74;80.68
9281;BME280;4679;47.966;7.958;2024-01-06T18:04:21;96452.91;;;4.74;80.57
9281;BME280;4679;47.966;7.958;2024-01-06T18:06:24;96457.94;;;4.76;81.33
9281;BME280;4679;47.966;7.958;2024-01-06T18:08:25;96458.16;;;4.74;80.58
9281;BME280;4679;47.966;7.958;2024-01-06T18:10:27;96458.16;;;4.74;80.85
9281;BME280;4679;47.966;7.958;2024-01-06T18:12:28;96459.63;;;4.70;81.01
9281;BME280;4679;47.966;7.958;2024-01-06T18:14:30;96459.63;;;4.70;81.57
9281;BME280;4679;47.966;7.958;2024-01-06T18:16:39;96461.25;;;4.71;81.28
9281;BME280;4679;47.966;7.958;2024-01-06T18:18:41;96465.91;;;4.69;81.32
9281;BME280;4679;47.966;7.958;2024-01-06T18:20:43;96458.47;;;4.66;81.68
9281;BME280;4679;47.966;7.958;2024-01-06T18:22:44;96459.28;;;4.67;81.78
9281;BME280;4679;47.966;7.958;2024-01-06T18:24:46;96461.69;;;4.68;81.37
9281;BME280;4679;47.966;7.958;2024-01-06T18:26:47;96466.13;;;4.68;82.01
9281;BME280;4679;47.966;7.958;2024-01-06T18:28:48;96455.63;;;4.68;81.73
9281;BME280;4679;47.966;7.958;2024-01-06T18:30:49;96460.44;;;4.71;81.96
9281;BME280;4679;47.966;7.958;2024-01-06T18:32:55;96456.78;;;4.72;81.72
9281;BME280;4679;47.966;7.958;2024-01-06T18:34:56;96463.88;;;4.71;81.85
9281;BME280;4679;47.966;7.958;2024-01-06T18:36:58;96462.72;;;4.67;81.51
9281;BME280;4679;47.966;7.958;2024-01-06T18:38:59;96468.53;;;4.69;81.39
9281;BME280;4679;47.966;7.958;2024-01-06T18:41:00;96463.72;;;4.66;81.95
9281;BME280;4679;47.966;7.958;2024-01-06T18:43:02;96466.94;;;4.68;82.06
9281;BME280;4679;47.966;7.958;2024-01-06T18:45:05;96466.78;;;4.63;81.79
9281;BME280;4679;47.966;7.958;2024-01-06T18:47:07;96461.06;;;4.54;81.60
9281;BME280;4679;47.966;7.958;2024-01-06T18:49:13;96471.78;;;4.53;81.90
9281;BME280;4679;47.966;7.958;2024-01-06T18:51:16;96463.91;;;4.53;82.06
9281;BME280;4679;47.966;7.958;2024-01-06T18:53:17;96474.78;;;4.56;82.16
9281;BME280;4679;47.966;7.958;2024-01-06T18:55:20;96463.00;;;4.59;82.11
9281;BME280;4679;47.966;7.958;2024-01-06T18:57:21;96467.00;;;4.62;82.40
9281;BME280;4679;47.966;7.958;2024-01-06T18:59:23;96465.19;;;4.62;82.16
9281;BME280;4679;47.966;7.958;2024-01-06T19:01:24;96464.75;;;4.65;82.41
9281;BME280;4679;47.966;7.958;2024-01-06T19:03:27;96465.41;;;4.60;82.67
9281;BME280;4679;47.966;7.958;2024-01-06T19:05:30;96466.44;;;4.59;82.39
9281;BME280;4679;47.966;7.958;2024-01-06T19:07:33;96466.91;;;4.56;82.29
9281;BME280;4679;47.966;7.958;2024-01-06T19:09:36;96466.75;;;4.51;82.58
9281;BME280;4679;47.966;7.958;2024-01-06T19:11:38;96465.13;;;4.50;82.73
9281;BME280;4679;47.966;7.958;2024-01-06T19:13:40;96466.75;;;4.51;82.42
9281;BME280;4679;47.966;7.958;2024-01-06T19:15:42;96469.38;;;4.51;82.74
9281;BME280;4679;47.966;7.958;2024-01-06T19:17:44;96469.81;;;4.48;83.19
9281;BME280;4679;47.966;7.958;2024-01-06T19:19:47;96467.41;;;4.47;82.80
9281;BME280;4679;47.966;7.958;2024-01-06T19:21:49;96470.03;;;4.47;83.24
9281;BME280;4679;47.966;7.958;2024-01-06T19:23:50;96468.41;;;4.46;82.66
9281;BME280;4679;47.966;7.958;2024-01-06T19:25:51;96470.81;;;4.47;83.27
9281;BME280;4679;47.966;7.958;2024-01-06T19:27:53;96465.00;;;4.45;83.50